Time,TemperatureF,DewpointF,PressureIn,WindDirection,WindDirectionDegrees,WindSpeedMPH,WindSpeedGustMPH,Humidity,HourlyPrecipIn,Conditions,Clouds,dailyrainin,SoftwareType,DateUTC
2013-03-30 00:02:00,45.3,32.3,30.19,SE,135,0.0,0.0,60,0.00,,,0.00,LWC V1.12 B30,2013-03-30 07:02:00,
2013-03-30 00:07:00,45.3,32.3,30.19,SE,135,0.0,0.0,60,0.00,,,0.00,LWC V1.12 B30,2013-03-30 07:07:00,
2013-03-30 00:12:00,45.3,32.3,30.19,SE,135,0.0,0.0,60,0.00,,,0.00,LWC V1.12 B30,2013-03-30 07:12:00,
2013-03-30 00:17:00,45.0,32.0,30.19,ESE,112,0.0,0.0,60,0.00,,,0.00,LWC V1.12 B30,2013-03-30 07:17:00,
2013-03-30 00:22:00,44.6,31.8,30.19,ESE,112,2.9,2.9,60,0.00,,,0.00,LWC V1.12 B30,2013-03-30 07:22:00,
2013-03-30 00:27:00,44.2,31.7,30.19,SE,135,0.9,2.5,61,0.00,,,0.00,LWC V1.12 B30,2013-03-30 07:27:00,
2013-03-30 00:32:00,44.1,31.5,30.19,SE,135,0.0,0.0,61,0.00,,,0.00,LWC V1.12 B30,2013-03-30 07:32:00,
2013-03-30 00:37:00,43.7,31.5,30.19,SE,135,1.1,1.6,62,0.00,,,0.00,LWC V1.12 B30,2013-03-30 07:37:00,
2013-03-30 00:42:00,43.3,31.2,30.19,SE,135,0.0,0.0,62,0.00,,,0.00,LWC V1.12 B30,2013-03-30 07:42:00,
2013-03-30 00:47:00,43.2,31.0,30.19,SE,135,0.0,0.0,62,0.00,,,0.00,LWC V1.12 B30,2013-03-30 07:47:00,
2013-03-30 00:52:00,43.0,31.2,30.20,ESE,112,0.0,2.5,63,0.00,,,0.00,LWC V1.12 B30,2013-03-30 07:52:00,
2013-03-30 00:57:00,42.6,30.8,30.19,ESE,112,0.0,0.0,63,0.00,,,0.00,LWC V1.12 B30,2013-03-30 07:57:00,
2013-03-30 01:03:00,42.4,31.1,30.19,SE,135,0.0,0.0,64,0.00,,,0.00,LWC V1.12 B30,2013-03-30 08:03:00,
2013-03-30 01:08:00,42.4,31.1,30.19,SE,135,0.0,2.9,64,0.00,,,0.00,LWC V1.12 B30,2013-03-30 08:08:00,
2013-03-30 01:13:00,42.1,31.1,30.19,SE,135,0.0,0.0,65,0.00,,,0.00,LWC V1.12 B30,2013-03-30 08:13:00,
2013-03-30 01:18:00,41.9,31.0,30.19,SE,135,0.0,0.0,65,0.00,,,0.00,LWC V1.12 B30,2013-03-30 08:18:00,
2013-03-30 01:23:00,41.7,30.8,30.19,SE,135,0.0,0.0,65,0.00,,,0.00,LWC V1.12 B30,2013-03-30 08:23:00,
2013-03-30 01:29:00,41.5,30.6,30.19,SE,135,1.3,2.2,65,0.00,,,0.00,LWC V1.12 B30,2013-03-30 08:29:00,
2013-03-30 01:34:00,41.5,31.0,30.19,SE,135,0.0,1.3,66,0.00,,,0.00,LWC V1.12 B30,2013-03-30 08:34:00,
2013-03-30 01:39:00,41.2,30.6,30.19,SE,135,0.0,0.0,66,0.00,,,0.00,LWC V1.12 B30,2013-03-30 08:39:00,
2013-03-30 01:44:00,41.0,30.5,30.19,SE,135,0.0,0.0,66,0.00,,,0.00,LWC V1.12 B30,2013-03-30 08:44:00,
2013-03-30 01:50:00,40.8,30.3,30.19,SE,135,0.0,0.0,66,0.00,,,0.00,LWC V1.12 B30,2013-03-30 08:50:00,
2013-03-30 01:55:00,40.8,30.3,30.19,SE,135,0.0,0.0,66,0.00,,,0.00,LWC V1.12 B30,2013-03-30 08:55:00,
2013-03-30 02:02:00,40.6,30.5,30.19,SE,135,0.0,0.0,67,0.00,,,0.00,LWC V1.12 B30,2013-03-30 09:02:00,
2013-03-30 02:07:00,40.3,30.1,30.19,SE,135,0.0,0.0,67,0.00,,,0.00,LWC V1.12 B30,2013-03-30 09:07:00,
2013-03-30 02:12:00,40.1,30.0,30.19,SE,135,0.0,0.0,67,0.00,,,0.00,LWC V1.12 B30,2013-03-30 09:12:00,
2013-03-30 02:17:00,39.9,30.2,30.19,SSE,157,0.0,1.3,68,0.00,,,0.00,LWC V1.12 B30,2013-03-30 09:17:00,
2013-03-30 02:23:00,39.7,30.0,30.19,SSE,157,0.0,0.0,68,0.00,,,0.00,LWC V1.12 B30,2013-03-30 09:23:00,
2013-03-30 02:28:00,39.6,29.8,30.19,SE,135,0.0,1.8,68,0.00,,,0.00,LWC V1.12 B30,2013-03-30 09:28:00,
2013-03-30 02:33:00,39.4,30.0,30.19,ESE,112,0.0,2.0,69,0.00,,,0.00,LWC V1.12 B30,2013-03-30 09:33:00,
2013-03-30 02:38:00,39.4,30.0,30.19,ESE,112,2.5,2.9,69,0.00,,,0.00,LWC V1.12 B30,2013-03-30 09:38:00,
2013-03-30 02:42:00,39.4,30.0,30.20,ESE,112,0.0,0.0,69,0.00,,,0.00,LWC V1.12 B30,2013-03-30 09:42:00,
2013-03-30 02:47:00,39.0,30.0,30.20,SE,135,0.0,0.0,70,0.00,,,0.00,LWC V1.12 B30,2013-03-30 09:47:00,
2013-03-30 02:52:00,39.0,30.0,30.19,SE,135,0.0,0.0,70,0.00,,,0.00,LWC V1.12 B30,2013-03-30 09:52:00,
2013-03-30 02:57:00,39.0,30.0,30.19,ESE,112,0.0,0.0,70,0.00,,,0.00,LWC V1.12 B30,2013-03-30 09:57:00,
2013-03-30 03:03:00,39.0,30.0,30.20,SE,135,0.0,0.0,70,0.00,,,0.00,LWC V1.12 B30,2013-03-30 10:03:00,
2013-03-30 03:08:00,39.0,30.0,30.19,SE,135,0.0,0.0,70,0.00,,,0.00,LWC V1.12 B30,2013-03-30 10:08:00,
2013-03-30 03:14:00,38.8,29.9,30.20,SE,135,0.0,0.0,70,0.00,,,0.00,LWC V1.12 B30,2013-03-30 10:14:00,
2013-03-30 03:19:00,38.8,29.9,30.19,SE,135,0.0,0.0,70,0.00,,,0.00,LWC V1.12 B30,2013-03-30 10:19:00,
2013-03-30 03:24:00,38.5,29.9,30.19,SE,135,0.0,0.0,71,0.00,,,0.00,LWC V1.12 B30,2013-03-30 10:24:00,
2013-03-30 03:29:00,38.3,29.7,30.19,ESE,112,0.0,0.0,71,0.00,,,0.00,LWC V1.12 B30,2013-03-30 10:29:00,
2013-03-30 03:34:00,38.1,29.6,30.19,ESE,112,0.0,0.0,71,0.00,,,0.00,LWC V1.12 B30,2013-03-30 10:34:00,
2013-03-30 03:40:00,37.9,29.4,30.19,ESE,112,0.0,0.0,71,0.00,,,0.00,LWC V1.12 B30,2013-03-30 10:40:00,
2013-03-30 03:45:00,37.9,29.4,30.19,ESE,112,0.0,0.0,71,0.00,,,0.00,LWC V1.12 B30,2013-03-30 10:45:00,
2013-03-30 03:50:00,37.8,29.2,30.19,SE,135,1.8,2.5,71,0.00,,,0.00,LWC V1.12 B30,2013-03-30 10:50:00,
2013-03-30 03:55:00,37.6,29.4,30.19,SE,135,1.3,1.6,72,0.00,,,0.00,LWC V1.12 B30,2013-03-30 10:55:00,
2013-03-30 04:01:00,37.2,29.2,30.19,SE,135,0.0,1.6,72,0.00,,,0.00,LWC V1.12 B30,2013-03-30 11:01:00,
2013-03-30 04:06:00,37.2,29.0,30.19,SE,135,0.0,0.0,72,0.00,,,0.00,LWC V1.12 B30,2013-03-30 11:06:00,
2013-03-30 04:11:00,37.0,29.2,30.19,SE,135,0.0,0.0,73,0.00,,,0.00,LWC V1.12 B30,2013-03-30 11:11:00,
2013-03-30 04:16:00,37.0,29.2,30.19,SE,135,0.0,0.0,73,0.00,,,0.00,LWC V1.12 B30,2013-03-30 11:16:00,
2013-03-30 04:21:00,37.0,29.5,30.19,ESE,112,0.0,0.0,74,0.00,,,0.00,LWC V1.12 B30,2013-03-30 11:21:00,
2013-03-30 04:26:00,36.9,29.3,30.18,ESE,112,0.0,0.0,74,0.00,,,0.00,LWC V1.12 B30,2013-03-30 11:26:00,
2013-03-30 04:32:00,36.9,29.3,30.18,SE,135,0.0,0.0,74,0.00,,,0.00,LWC V1.12 B30,2013-03-30 11:32:00,
2013-03-30 04:37:00,36.7,29.2,30.19,SE,135,0.0,0.0,74,0.00,,,0.00,LWC V1.12 B30,2013-03-30 11:37:00,
2013-03-30 04:42:00,36.7,29.2,30.19,SE,135,0.0,0.0,74,0.00,,,0.00,LWC V1.12 B30,2013-03-30 11:42:00,
2013-03-30 04:47:00,36.5,29.0,30.19,SE,135,0.0,0.0,74,0.00,,,0.00,LWC V1.12 B30,2013-03-30 11:47:00,
2013-03-30 04:52:00,36.5,29.0,30.18,SE,135,0.0,0.0,74,0.00,,,0.00,LWC V1.12 B30,2013-03-30 11:52:00,
2013-03-30 04:58:00,36.3,28.8,30.19,SE,135,0.0,0.0,74,0.00,,,0.00,LWC V1.12 B30,2013-03-30 11:58:00,
2013-03-30 05:03:00,36.3,29.1,30.19,SE,135,0.0,0.0,75,0.00,,,0.00,LWC V1.12 B30,2013-03-30 12:03:00,
2013-03-30 05:09:00,36.3,29.1,30.19,SE,135,0.0,0.0,75,0.00,,,0.00,LWC V1.12 B30,2013-03-30 12:09:00,
2013-03-30 05:14:00,36.3,29.1,30.19,SE,135,0.0,0.0,75,0.00,,,0.00,LWC V1.12 B30,2013-03-30 12:14:00,
2013-03-30 05:19:00,36.1,28.9,30.18,SE,135,0.0,0.0,75,0.00,,,0.00,LWC V1.12 B30,2013-03-30 12:19:00,
2013-03-30 05:24:00,36.0,28.4,30.19,SE,135,0.0,0.0,74,0.00,,,0.00,LWC V1.12 B30,2013-03-30 12:24:00,
2013-03-30 05:29:00,35.8,28.6,30.19,SE,135,0.0,0.0,75,0.00,,,0.00,LWC V1.12 B30,2013-03-30 12:29:00,
2013-03-30 05:34:00,35.4,28.6,30.19,SE,135,0.0,0.0,75,0.00,,,0.00,LWC V1.12 B30,2013-03-30 12:34:00,
2013-03-30 05:39:00,35.4,28.2,30.19,SE,135,0.0,0.0,75,0.00,,,0.00,LWC V1.12 B30,2013-03-30 12:39:00,
2013-03-30 05:44:00,35.4,28.2,30.19,SE,135,0.0,0.0,75,0.00,,,0.00,LWC V1.12 B30,2013-03-30 12:44:00,
2013-03-30 05:49:00,35.2,28.0,30.19,SE,135,0.0,0.0,75,0.00,,,0.00,LWC V1.12 B30,2013-03-30 12:49:00,
2013-03-30 05:54:00,35.1,27.9,30.19,SE,135,0.0,0.0,75,0.00,,,0.00,LWC V1.12 B30,2013-03-30 12:54:00,
2013-03-30 05:59:00,34.9,27.7,30.19,SE,135,0.0,0.0,75,0.00,,,0.00,LWC V1.12 B30,2013-03-30 12:59:00,
2013-03-30 06:04:00,34.9,28.0,30.19,SE,135,0.0,0.0,76,0.00,,,0.00,LWC V1.12 B30,2013-03-30 13:04:00,
2013-03-30 06:09:00,34.7,27.8,30.19,SE,135,0.0,0.0,76,0.00,,,0.00,LWC V1.12 B30,2013-03-30 13:09:00,
2013-03-30 06:15:00,34.5,27.6,30.19,SE,135,0.0,0.0,76,0.00,,,0.00,LWC V1.12 B30,2013-03-30 13:15:00,
2013-03-30 06:20:00,34.3,27.5,30.19,SE,135,0.0,0.0,76,0.00,,,0.00,LWC V1.12 B30,2013-03-30 13:20:00,
2013-03-30 06:25:00,34.3,27.5,30.19,SE,135,0.0,0.0,76,0.00,,,0.00,LWC V1.12 B30,2013-03-30 13:25:00,
2013-03-30 06:30:00,34.3,27.8,30.20,SE,135,0.0,0.0,77,0.00,,,0.00,LWC V1.12 B30,2013-03-30 13:30:00,
2013-03-30 06:35:00,34.2,27.8,30.20,SE,135,0.0,0.0,77,0.00,,,0.00,LWC V1.12 B30,2013-03-30 13:35:00,
2013-03-30 06:40:00,34.2,27.6,30.20,SE,135,0.0,0.0,77,0.00,,,0.00,LWC V1.12 B30,2013-03-30 13:40:00,
2013-03-30 06:45:00,34.2,27.6,30.20,SE,135,0.0,0.0,77,0.00,,,0.00,LWC V1.12 B30,2013-03-30 13:45:00,
2013-03-30 06:50:00,34.2,27.6,30.21,SE,135,0.0,0.0,77,0.00,,,0.00,LWC V1.12 B30,2013-03-30 13:50:00,
2013-03-30 06:55:00,34.2,27.6,30.21,SE,135,0.0,0.0,77,0.00,,,0.00,LWC V1.12 B30,2013-03-30 13:55:00,
2013-03-30 07:01:00,34.0,27.8,30.21,SE,135,0.0,0.0,78,0.00,,,0.00,LWC V1.12 B30,2013-03-30 14:01:00,
2013-03-30 07:06:00,34.2,27.9,30.21,SE,135,0.0,0.0,78,0.00,,,0.00,LWC V1.12 B30,2013-03-30 14:06:00,
2013-03-30 07:11:00,34.2,27.9,30.21,SE,135,0.0,0.0,78,0.00,,,0.00,LWC V1.12 B30,2013-03-30 14:11:00,
2013-03-30 07:16:00,34.3,28.1,30.21,SE,135,0.0,0.0,78,0.00,,,0.00,LWC V1.12 B30,2013-03-30 14:16:00,
2013-03-30 07:21:00,34.3,28.1,30.21,SE,135,0.0,0.0,78,0.00,,,0.00,LWC V1.12 B30,2013-03-30 14:21:00,
2013-03-30 07:27:00,34.5,28.3,30.22,SE,135,0.0,0.0,78,0.00,,,0.00,LWC V1.12 B30,2013-03-30 14:27:00,
2013-03-30 07:32:00,34.9,28.7,30.22,SE,135,0.0,0.0,79,0.00,,,0.00,LWC V1.12 B30,2013-03-30 14:32:00,
2013-03-30 07:37:00,35.2,29.3,30.22,SE,135,0.0,0.0,79,0.00,,,0.00,LWC V1.12 B30,2013-03-30 14:37:00,
2013-03-30 07:42:00,35.4,29.5,30.22,SE,135,0.0,0.0,79,0.00,,,0.00,LWC V1.12 B30,2013-03-30 14:42:00,
2013-03-30 07:47:00,35.8,29.9,30.22,SE,135,0.0,0.0,79,0.00,,,0.00,LWC V1.12 B30,2013-03-30 14:47:00,
2013-03-30 07:52:00,36.1,30.2,30.23,SE,135,0.0,0.0,79,0.00,,,0.00,LWC V1.12 B30,2013-03-30 14:52:00,
2013-03-30 07:57:00,36.5,30.6,30.23,SE,135,0.0,0.0,79,0.00,,,0.00,LWC V1.12 B30,2013-03-30 14:57:00,
2013-03-30 08:02:00,37.0,31.1,30.24,ESE,112,0.0,0.0,79,0.00,,,0.00,LWC V1.12 B30,2013-03-30 15:02:00,
2013-03-30 08:07:00,37.2,31.6,30.23,North,0,0.0,2.0,80,0.00,,,0.00,LWC V1.12 B30,2013-03-30 15:07:00,
2013-03-30 08:12:00,37.9,32.4,30.23,NNW,337,0.0,0.0,80,0.00,,,0.00,LWC V1.12 B30,2013-03-30 15:12:00,
2013-03-30 08:18:00,38.1,32.5,30.23,NW,315,0.0,0.0,80,0.00,,,0.00,LWC V1.12 B30,2013-03-30 15:18:00,
2013-03-30 08:23:00,38.8,33.3,30.23,NW,315,0.0,0.0,80,0.00,,,0.00,LWC V1.12 B30,2013-03-30 15:23:00,
2013-03-30 08:28:00,39.4,33.4,30.24,NNW,337,0.0,0.0,79,0.00,,,0.00,LWC V1.12 B30,2013-03-30 15:28:00,
2013-03-30 08:33:00,39.9,33.9,30.24,North,0,0.0,2.0,79,0.00,,,0.00,LWC V1.12 B30,2013-03-30 15:33:00,
2013-03-30 08:38:00,40.5,34.1,30.24,NNW,337,3.1,3.1,78,0.00,,,0.00,LWC V1.12 B30,2013-03-30 15:38:00,
2013-03-30 08:43:00,40.8,34.4,30.24,NNW,337,0.0,1.3,78,0.00,,,0.00,LWC V1.12 B30,2013-03-30 15:43:00,
2013-03-30 08:48:00,41.2,34.4,30.24,NNE,22,0.0,1.3,77,0.00,,,0.00,LWC V1.12 B30,2013-03-30 15:48:00,
2013-03-30 08:53:00,41.7,35.0,30.24,North,0,0.0,2.5,77,0.00,,,0.00,LWC V1.12 B30,2013-03-30 15:53:00,
2013-03-30 08:58:00,42.1,35.7,30.24,North,0,2.5,3.1,77,0.00,,,0.00,LWC V1.12 B30,2013-03-30 15:58:00,
2013-03-30 09:04:00,42.6,35.6,30.25,North,0,2.7,2.7,76,0.00,,,0.00,LWC V1.12 B30,2013-03-30 16:04:00,
2013-03-30 09:09:00,43.3,35.9,30.25,NNW,337,1.3,2.7,75,0.00,,,0.00,LWC V1.12 B30,2013-03-30 16:09:00,
2013-03-30 09:14:00,43.7,36.3,30.25,NW,315,0.0,3.8,75,0.00,,,0.00,LWC V1.12 B30,2013-03-30 16:14:00,
2013-03-30 09:19:00,44.2,36.8,30.24,North,0,2.0,2.0,75,0.00,,,0.00,LWC V1.12 B30,2013-03-30 16:19:00,
2013-03-30 09:24:00,45.0,36.8,30.24,NNW,337,0.0,3.1,73,0.00,,,0.00,LWC V1.12 B30,2013-03-30 16:24:00,
2013-03-30 09:29:00,45.3,37.2,30.24,NW,315,0.0,0.0,73,0.00,,,0.00,LWC V1.12 B30,2013-03-30 16:29:00,
2013-03-30 09:34:00,46.0,37.5,30.23,NNE,22,0.0,1.1,72,0.00,,,0.00,LWC V1.12 B30,2013-03-30 16:34:00,
2013-03-30 09:39:00,46.6,37.7,30.24,NNW,337,0.0,0.0,71,0.00,,,0.00,LWC V1.12 B30,2013-03-30 16:39:00,
2013-03-30 09:44:00,46.9,38.0,30.25,NNW,337,1.3,1.3,71,0.00,,,0.00,LWC V1.12 B30,2013-03-30 16:44:00,
2013-03-30 09:49:00,47.5,37.8,30.25,NNW,337,0.0,2.9,69,0.00,,,0.00,LWC V1.12 B30,2013-03-30 16:49:00,
2013-03-30 09:55:00,48.0,37.9,30.24,NNW,337,0.0,4.5,68,0.00,,,0.00,LWC V1.12 B30,2013-03-30 16:55:00,
2013-03-30 10:00:00,48.2,37.7,30.24,NE,45,0.0,3.1,67,0.00,,,0.00,LWC V1.12 B30,2013-03-30 17:00:00,
2013-03-30 10:05:00,48.7,38.2,30.24,North,0,2.0,2.5,67,0.00,,,0.00,LWC V1.12 B30,2013-03-30 17:05:00,
2013-03-30 10:10:00,48.9,38.0,30.24,North,0,0.0,2.0,66,0.00,,,0.00,LWC V1.12 B30,2013-03-30 17:10:00,
2013-03-30 10:16:00,49.6,38.3,30.24,West,270,0.0,0.0,65,0.00,,,0.00,LWC V1.12 B30,2013-03-30 17:16:00,
2013-03-30 10:21:00,49.8,38.5,30.24,West,270,0.0,0.0,65,0.00,,,0.00,LWC V1.12 B30,2013-03-30 17:21:00,
2013-03-30 10:26:00,50.5,39.2,30.23,North,0,0.0,2.5,65,0.00,,,0.00,LWC V1.12 B30,2013-03-30 17:26:00,
2013-03-30 10:31:00,50.9,39.1,30.23,WNW,292,0.0,0.0,64,0.00,,,0.00,LWC V1.12 B30,2013-03-30 17:31:00,
2013-03-30 10:36:00,51.3,39.0,30.23,North,0,0.0,4.7,63,0.00,,,0.00,LWC V1.12 B30,2013-03-30 17:36:00,
2013-03-30 10:41:00,51.6,39.4,30.23,NNW,337,1.1,5.4,63,0.00,,,0.00,LWC V1.12 B30,2013-03-30 17:41:00,
2013-03-30 10:46:00,51.8,40.0,30.23,North,0,2.5,4.2,64,0.00,,,0.00,LWC V1.12 B30,2013-03-30 17:46:00,
2013-03-30 10:51:00,52.5,40.2,30.23,North,0,0.0,4.0,63,0.00,,,0.00,LWC V1.12 B30,2013-03-30 17:51:00,
2013-03-30 10:56:00,53.2,40.5,30.23,North,0,3.1,3.1,62,0.00,,,0.00,LWC V1.12 B30,2013-03-30 17:56:00,
2013-03-30 11:01:00,53.4,40.7,30.24,NW,315,0.0,0.0,62,0.00,,,0.00,LWC V1.12 B30,2013-03-30 18:01:00,
2013-03-30 11:06:00,54.3,41.1,30.24,North,0,2.7,2.7,61,0.00,,,0.00,LWC V1.12 B30,2013-03-30 18:06:00,
2013-03-30 11:11:00,54.7,41.5,30.23,North,0,2.0,2.9,61,0.00,,,0.00,LWC V1.12 B30,2013-03-30 18:11:00,
2013-03-30 11:16:00,55.2,41.6,30.23,NE,45,0.0,1.6,60,0.00,,,0.00,LWC V1.12 B30,2013-03-30 18:16:00,
2013-03-30 11:21:00,55.6,41.9,30.24,North,0,4.5,4.7,60,0.00,,,0.00,LWC V1.12 B30,2013-03-30 18:21:00,
2013-03-30 11:26:00,55.8,41.6,30.24,NNE,22,0.0,2.2,59,0.00,,,0.00,LWC V1.12 B30,2013-03-30 18:26:00,
2013-03-30 11:32:00,55.9,41.8,30.24,NNW,337,0.0,0.0,59,0.00,,,0.00,LWC V1.12 B30,2013-03-30 18:32:00,
2013-03-30 11:37:00,56.7,42.5,30.23,NE,45,0.0,0.0,59,0.00,,,0.00,LWC V1.12 B30,2013-03-30 18:37:00,
2013-03-30 11:42:00,57.0,41.9,30.23,NNW,337,0.0,2.9,57,0.00,,,0.00,LWC V1.12 B30,2013-03-30 18:42:00,
2013-03-30 11:47:00,57.6,42.3,30.23,North,0,0.0,2.2,57,0.00,,,0.00,LWC V1.12 B30,2013-03-30 18:47:00,
2013-03-30 11:52:00,57.9,43.2,30.23,ENE,67,0.0,1.3,58,0.00,,,0.00,LWC V1.12 B30,2013-03-30 18:52:00,
2013-03-30 11:58:00,58.6,42.9,30.23,NNE,22,4.0,5.1,56,0.00,,,0.00,LWC V1.12 B30,2013-03-30 18:58:00,
2013-03-30 12:03:00,58.6,42.5,30.23,NE,45,0.0,2.7,55,0.00,,,0.00,LWC V1.12 B30,2013-03-30 19:03:00,
2013-03-30 12:09:00,59.0,42.8,30.23,NNE,22,2.2,5.1,55,0.00,,,0.00,LWC V1.12 B30,2013-03-30 19:09:00,
2013-03-30 12:14:00,59.4,43.1,30.23,NW,315,0.0,4.7,55,0.00,,,0.00,LWC V1.12 B30,2013-03-30 19:14:00,
2013-03-30 12:19:00,59.7,43.0,30.23,NNW,337,0.9,3.6,54,0.00,,,0.00,LWC V1.12 B30,2013-03-30 19:19:00,
2013-03-30 12:24:00,60.1,43.2,30.23,WNW,292,0.0,2.2,54,0.00,,,0.00,LWC V1.12 B30,2013-03-30 19:24:00,
2013-03-30 12:29:00,60.4,43.2,30.23,NW,315,0.0,1.6,53,0.00,,,0.00,LWC V1.12 B30,2013-03-30 19:29:00,
2013-03-30 12:34:00,60.8,43.5,30.22,NNW,337,0.0,1.6,53,0.00,,,0.00,LWC V1.12 B30,2013-03-30 19:34:00,
2013-03-30 12:39:00,61.3,43.5,30.22,SSW,202,1.3,1.3,52,0.00,,,0.00,LWC V1.12 B30,2013-03-30 19:39:00,
2013-03-30 12:44:00,61.7,43.9,30.22,West,270,0.0,2.5,52,0.00,,,0.00,LWC V1.12 B30,2013-03-30 19:44:00,
2013-03-30 12:49:00,61.9,43.1,30.22,NNW,337,1.6,4.7,50,0.00,,,0.00,LWC V1.12 B30,2013-03-30 19:49:00,
2013-03-30 12:54:00,61.9,42.5,30.22,SW,225,0.0,4.0,49,0.00,,,0.00,LWC V1.12 B30,2013-03-30 19:54:00,
2013-03-30 12:59:00,62.2,43.4,30.22,North,0,0.0,3.4,50,0.00,,,0.00,LWC V1.12 B30,2013-03-30 19:59:00,
2013-03-30 13:04:00,62.2,42.8,30.22,North,0,0.7,4.5,49,0.00,,,0.00,LWC V1.12 B30,2013-03-30 20:04:00,
2013-03-30 13:09:00,61.7,41.7,30.22,NNW,337,4.0,4.5,48,0.00,,,0.00,LWC V1.12 B30,2013-03-30 20:09:00,
2013-03-30 13:14:00,61.2,41.8,30.23,ENE,67,0.0,1.6,49,0.00,,,0.00,LWC V1.12 B30,2013-03-30 20:14:00,
2013-03-30 13:19:00,61.0,41.7,30.22,NNW,337,4.0,4.0,49,0.00,,,0.00,LWC V1.12 B30,2013-03-30 20:19:00,
2013-03-30 13:24:00,61.3,42.0,30.22,NNW,337,3.1,5.1,49,0.00,,,0.00,LWC V1.12 B30,2013-03-30 20:24:00,
2013-03-30 13:29:00,61.3,40.8,30.22,North,0,1.8,4.5,47,0.00,,,0.00,LWC V1.12 B30,2013-03-30 20:29:00,
2013-03-30 13:34:00,61.3,41.4,30.22,NNW,337,1.3,3.6,48,0.00,,,0.00,LWC V1.12 B30,2013-03-30 20:34:00,
2013-03-30 13:39:00,61.9,40.7,30.22,NW,315,1.8,6.0,46,0.00,,,0.00,LWC V1.12 B30,2013-03-30 20:39:00,
2013-03-30 13:44:00,62.2,41.1,30.22,WNW,292,0.0,2.5,46,0.00,,,0.00,LWC V1.12 B30,2013-03-30 20:44:00,
2013-03-30 13:49:00,62.4,41.2,30.21,SSW,202,0.9,1.1,46,0.00,,,0.00,LWC V1.12 B30,2013-03-30 20:49:00,
2013-03-30 13:54:00,62.8,42.1,30.21,SW,225,0.0,0.9,47,0.00,,,0.00,LWC V1.12 B30,2013-03-30 20:54:00,
2013-03-30 13:59:00,62.8,41.0,30.21,NW,315,1.1,4.7,45,0.00,,,0.00,LWC V1.12 B30,2013-03-30 20:59:00,
2013-03-30 14:04:00,63.0,41.1,30.20,NW,315,2.0,3.6,45,0.00,,,0.00,LWC V1.12 B30,2013-03-30 21:04:00,
2013-03-30 14:09:00,63.1,40.7,30.20,North,0,0.0,0.0,44,0.00,,,0.00,LWC V1.12 B30,2013-03-30 21:09:00,
2013-03-30 14:14:00,63.1,40.2,30.20,NNW,337,6.7,6.7,43,0.00,,,0.00,LWC V1.12 B30,2013-03-30 21:14:00,
2013-03-30 14:19:00,63.1,39.6,30.21,NNW,337,3.4,6.0,42,0.00,,,0.00,LWC V1.12 B30,2013-03-30 21:19:00,
2013-03-30 14:24:00,63.1,40.7,30.20,North,0,0.0,1.6,43,0.00,,,0.00,LWC V1.12 B30,2013-03-30 21:24:00,
2013-03-30 14:29:00,63.3,40.9,30.20,North,0,3.6,3.6,44,0.00,,,0.00,LWC V1.12 B30,2013-03-30 21:29:00,
2013-03-30 14:34:00,63.0,39.4,30.19,WNW,292,2.0,2.0,42,0.00,,,0.00,LWC V1.12 B30,2013-03-30 21:34:00,
2013-03-30 14:39:00,62.4,39.5,30.19,NNW,337,0.0,0.0,43,0.00,,,0.00,LWC V1.12 B30,2013-03-30 21:39:00,
2013-03-30 14:44:00,62.4,40.1,30.19,NNE,22,0.0,2.0,44,0.00,,,0.00,LWC V1.12 B30,2013-03-30 21:44:00,
2013-03-30 14:49:00,62.2,39.3,30.19,NE,45,0.0,2.9,43,0.00,,,0.00,LWC V1.12 B30,2013-03-30 21:49:00,
2013-03-30 14:55:00,62.2,39.3,30.19,NNE,22,0.0,1.3,43,0.00,,,0.00,LWC V1.12 B30,2013-03-30 21:55:00,
2013-03-30 15:00:00,62.6,39.7,30.19,North,0,0.0,1.8,43,0.00,,,0.00,LWC V1.12 B30,2013-03-30 22:00:00,
2013-03-30 15:05:00,62.6,39.1,30.18,North,0,0.0,2.2,42,0.00,,,0.00,LWC V1.12 B30,2013-03-30 22:05:00,
2013-03-30 15:10:00,62.4,38.9,30.17,North,0,0.0,0.0,42,0.00,,,0.00,LWC V1.12 B30,2013-03-30 22:10:00,
2013-03-30 15:15:00,62.4,39.5,30.17,NNW,337,2.5,2.5,43,0.00,,,0.00,LWC V1.12 B30,2013-03-30 22:15:00,
2013-03-30 15:20:00,63.1,40.2,30.18,NNW,337,0.0,2.2,43,0.00,,,0.00,LWC V1.12 B30,2013-03-30 22:20:00,
2013-03-30 15:25:00,63.7,40.1,30.17,NNE,22,2.5,28.4,42,0.00,,,0.00,LWC V1.12 B30,2013-03-30 22:25:00,
2013-03-30 15:30:00,64.2,40.0,30.17,ENE,67,0.0,2.2,41,0.00,,,0.00,LWC V1.12 B30,2013-03-30 22:30:00,
2013-03-30 15:35:00,64.8,40.5,30.17,North,0,2.2,7.4,41,0.00,,,0.00,LWC V1.12 B30,2013-03-30 22:35:00,
2013-03-30 15:40:00,64.9,40.0,30.17,North,0,2.0,3.6,40,0.00,,,0.00,LWC V1.12 B30,2013-03-30 22:40:00,
2013-03-30 15:45:00,64.6,39.7,30.17,NNW,337,2.9,2.9,40,0.00,,,0.00,LWC V1.12 B30,2013-03-30 22:45:00,
2013-03-30 15:50:00,64.6,39.7,30.16,WSW,247,0.0,2.2,40,0.00,,,0.00,LWC V1.12 B30,2013-03-30 22:50:00,
2013-03-30 15:55:00,64.8,39.2,30.16,North,0,5.1,5.4,39,0.00,,,0.00,LWC V1.12 B30,2013-03-30 22:55:00,
2013-03-30 16:00:00,64.6,39.0,30.16,North,0,0.0,0.0,39,0.00,,,0.00,LWC V1.12 B30,2013-03-30 23:00:00,
2013-03-30 16:05:00,64.6,39.7,30.15,West,270,0.0,0.0,40,0.00,,,0.00,LWC V1.12 B30,2013-03-30 23:05:00,
2013-03-30 16:10:00,64.8,39.2,30.16,NNW,337,0.0,3.1,39,0.00,,,0.00,LWC V1.12 B30,2013-03-30 23:10:00,
2013-03-30 16:15:00,64.6,39.0,30.16,WNW,292,0.0,1.3,39,0.00,,,0.00,LWC V1.12 B30,2013-03-30 23:15:00,
2013-03-30 16:20:00,64.6,38.8,30.15,SSW,202,0.0,0.0,39,0.00,,,0.00,LWC V1.12 B30,2013-03-30 23:20:00,
2013-03-30 16:26:00,64.6,39.0,30.15,South,180,0.0,4.2,39,0.00,,,0.00,LWC V1.12 B30,2013-03-30 23:26:00,
2013-03-30 16:31:00,64.6,39.0,30.15,NNE,22,0.0,0.0,39,0.00,,,0.00,LWC V1.12 B30,2013-03-30 23:31:00,
2013-03-30 16:36:00,64.6,39.0,30.14,ESE,112,0.0,0.0,39,0.00,,,0.00,LWC V1.12 B30,2013-03-30 23:36:00,
2013-03-30 16:41:00,64.6,39.0,30.14,SSE,157,1.8,1.8,39,0.00,,,0.00,LWC V1.12 B30,2013-03-30 23:41:00,
2013-03-30 16:46:00,64.6,39.7,30.14,SSE,157,0.0,0.0,40,0.00,,,0.00,LWC V1.12 B30,2013-03-30 23:46:00,
2013-03-30 16:51:00,64.6,39.0,30.14,SSW,202,0.0,0.9,39,0.00,,,0.00,LWC V1.12 B30,2013-03-30 23:51:00,
2013-03-30 16:56:00,64.6,39.0,30.14,SE,135,0.0,0.0,39,0.00,,,0.00,LWC V1.12 B30,2013-03-30 23:56:00,
2013-03-30 17:01:00,64.6,38.3,30.14,South,180,0.0,4.9,38,0.00,,,0.00,LWC V1.12 B30,2013-03-31 00:01:00,
2013-03-30 17:06:00,64.6,38.3,30.14,SSW,202,1.3,2.2,38,0.00,,,0.00,LWC V1.12 B30,2013-03-31 00:06:00,
2013-03-30 17:12:00,64.2,38.0,30.14,WNW,292,1.6,1.8,38,0.00,,,0.00,LWC V1.12 B30,2013-03-31 00:12:00,
2013-03-30 17:17:00,64.0,37.1,30.14,WNW,292,3.1,6.0,37,0.00,,,0.00,LWC V1.12 B30,2013-03-31 00:17:00,
2013-03-30 17:22:00,63.5,36.6,30.14,WNW,292,0.0,4.7,37,0.00,,,0.00,LWC V1.12 B30,2013-03-31 00:22:00,
2013-03-30 17:27:00,63.3,37.1,30.13,WNW,292,0.0,0.0,38,0.00,,,0.00,LWC V1.12 B30,2013-03-31 00:27:00,
2013-03-30 17:32:00,63.1,37.0,30.13,WSW,247,0.0,0.0,38,0.00,,,0.00,LWC V1.12 B30,2013-03-31 00:32:00,
2013-03-30 17:37:00,63.1,37.0,30.13,West,270,0.0,0.0,38,0.00,,,0.00,LWC V1.12 B30,2013-03-31 00:37:00,
2013-03-30 17:42:00,63.0,36.8,30.13,WNW,292,0.0,1.1,38,0.00,,,0.00,LWC V1.12 B30,2013-03-31 00:42:00,
2013-03-30 17:47:00,62.8,36.7,30.13,WNW,292,0.0,14.1,38,0.00,,,0.00,LWC V1.12 B30,2013-03-31 00:47:00,
2013-03-30 17:52:00,62.8,36.7,30.13,North,0,0.0,0.0,38,0.00,,,0.00,LWC V1.12 B30,2013-03-31 00:52:00,
2013-03-30 17:57:00,62.4,36.3,30.13,North,0,1.3,2.9,38,0.00,,,0.00,LWC V1.12 B30,2013-03-31 00:57:00,
2013-03-30 18:02:00,62.4,36.3,30.13,NNE,22,1.3,1.3,38,0.00,,,0.00,LWC V1.12 B30,2013-03-31 01:02:00,
2013-03-30 18:07:00,62.2,36.2,30.12,NNW,337,0.0,0.0,38,0.00,,,0.00,LWC V1.12 B30,2013-03-31 01:07:00,
2013-03-30 18:12:00,62.4,37.1,30.12,West,270,0.0,0.0,39,0.00,,,0.00,LWC V1.12 B30,2013-03-31 01:12:00,
2013-03-30 18:17:00,62.4,37.1,30.12,West,270,0.0,0.0,39,0.00,,,0.00,LWC V1.12 B30,2013-03-31 01:17:00,
2013-03-30 18:22:00,62.2,36.9,30.12,West,270,0.0,0.0,39,0.00,,,0.00,LWC V1.12 B30,2013-03-31 01:22:00,
2013-03-30 18:27:00,62.1,36.0,30.12,NE,45,0.0,0.0,38,0.00,,,0.00,LWC V1.12 B30,2013-03-31 01:27:00,
2013-03-30 18:32:00,61.9,36.6,30.12,SSW,202,0.0,0.0,39,0.00,,,0.00,LWC V1.12 B30,2013-03-31 01:32:00,
2013-03-30 18:37:00,61.7,36.4,30.12,SSW,202,0.0,1.1,39,0.00,,,0.00,LWC V1.12 B30,2013-03-31 01:37:00,
2013-03-30 18:42:00,61.3,36.1,30.12,SSW,202,0.0,0.0,39,0.00,,,0.00,LWC V1.12 B30,2013-03-31 01:42:00,
2013-03-30 18:47:00,61.0,35.8,30.12,SSW,202,0.0,0.0,39,0.00,,,0.00,LWC V1.12 B30,2013-03-31 01:47:00,
2013-03-30 18:52:00,60.6,35.6,30.12,SSE,157,0.0,1.3,39,0.00,,,0.00,LWC V1.12 B30,2013-03-31 01:52:00,
2013-03-30 18:57:00,60.4,36.0,30.12,SSW,202,1.6,1.6,40,0.00,,,0.00,LWC V1.12 B30,2013-03-31 01:57:00,
2013-03-30 19:02:00,60.1,35.7,30.12,SSE,157,0.0,0.0,40,0.00,,,0.00,LWC V1.12 B30,2013-03-31 02:02:00,
2013-03-30 19:07:00,59.7,35.3,30.12,SSE,157,0.0,0.0,40,0.00,,,0.00,LWC V1.12 B30,2013-03-31 02:07:00,
2013-03-30 19:12:00,59.4,35.6,30.12,SSE,157,0.0,0.0,41,0.00,,,0.00,LWC V1.12 B30,2013-03-31 02:12:00,
2013-03-30 19:18:00,58.8,35.7,30.12,SE,135,0.0,0.0,42,0.00,,,0.00,LWC V1.12 B30,2013-03-31 02:18:00,
2013-03-30 19:23:00,58.3,35.8,30.12,SE,135,0.0,2.0,43,0.00,,,0.00,LWC V1.12 B30,2013-03-31 02:23:00,
2013-03-30 19:28:00,57.6,35.7,30.12,SE,135,2.0,2.7,44,0.00,,,0.00,LWC V1.12 B30,2013-03-31 02:28:00,
2013-03-30 19:33:00,56.8,35.6,30.12,SE,135,2.7,2.9,45,0.00,,,0.00,LWC V1.12 B30,2013-03-31 02:33:00,
2013-03-30 19:38:00,56.1,35.5,30.12,SE,135,2.5,2.5,46,0.00,,,0.00,LWC V1.12 B30,2013-03-31 02:38:00,
2013-03-30 19:43:00,55.6,35.5,30.11,SE,135,3.8,4.0,47,0.00,,,0.00,LWC V1.12 B30,2013-03-31 02:43:00,
2013-03-30 19:48:00,55.0,35.0,30.12,SE,135,4.0,4.5,47,0.00,,,0.00,LWC V1.12 B30,2013-03-31 02:48:00,
2013-03-30 19:54:00,54.3,34.4,30.12,SE,135,3.6,3.8,47,0.00,,,0.00,LWC V1.12 B30,2013-03-31 02:54:00,
2013-03-30 19:59:00,54.0,34.8,30.11,SE,135,3.1,4.2,48,0.00,,,0.00,LWC V1.12 B30,2013-03-31 02:59:00,
2013-03-30 20:04:00,53.4,34.7,30.11,SE,135,3.1,3.6,49,0.00,,,0.00,LWC V1.12 B30,2013-03-31 03:04:00,
2013-03-30 20:09:00,53.2,35.1,30.12,SE,135,3.4,3.4,50,0.00,,,0.00,LWC V1.12 B30,2013-03-31 03:09:00,
2013-03-30 20:14:00,52.5,34.9,30.12,SE,135,3.8,4.0,51,0.00,,,0.00,LWC V1.12 B30,2013-03-31 03:14:00,
2013-03-30 20:19:00,52.3,35.2,30.11,SE,135,3.8,4.0,52,0.00,,,0.00,LWC V1.12 B30,2013-03-31 03:19:00,
2013-03-30 20:24:00,51.8,35.2,30.11,SE,135,4.5,4.5,53,0.00,,,0.00,LWC V1.12 B30,2013-03-31 03:24:00,
2013-03-30 20:29:00,51.6,35.0,30.12,SE,135,2.5,3.6,53,0.00,,,0.00,LWC V1.12 B30,2013-03-31 03:29:00,
2013-03-30 20:35:00,51.1,35.0,30.11,SE,135,4.5,4.5,54,0.00,,,0.00,LWC V1.12 B30,2013-03-31 03:35:00,
2013-03-30 20:40:00,50.7,34.6,30.11,SE,135,4.0,4.5,54,0.00,,,0.00,LWC V1.12 B30,2013-03-31 03:40:00,
2013-03-30 20:45:00,50.5,34.9,30.11,SSE,157,3.6,3.8,55,0.00,,,0.00,LWC V1.12 B30,2013-03-31 03:45:00,
2013-03-30 20:50:00,50.2,34.6,30.12,SE,135,2.5,2.9,55,0.00,,,0.00,LWC V1.12 B30,2013-03-31 03:50:00,
2013-03-30 20:55:00,49.8,34.2,30.11,SE,135,0.0,0.0,55,0.00,,,0.00,LWC V1.12 B30,2013-03-31 03:55:00,
2013-03-30 21:00:00,49.6,34.1,30.12,SSE,157,0.0,0.0,55,0.00,,,0.00,LWC V1.12 B30,2013-03-31 04:00:00,
2013-03-30 21:01:00,49.6,34.1,30.11,SSE,157,0.0,0.0,55,0.00,,,0.00,LWC V1.12 B30,2013-03-31 04:01:00,
2013-03-30 21:02:00,49.6,34.1,30.12,SSE,157,0.0,0.0,55,0.00,,,0.00,LWC V1.12 B30,2013-03-31 04:02:00,
2013-03-30 21:03:00,49.6,34.1,30.12,SSE,157,0.0,0.0,55,0.00,,,0.00,LWC V1.12 B30,2013-03-31 04:03:00,
2013-03-30 21:08:00,49.6,34.1,30.12,SSE,157,0.0,0.0,55,0.00,,,0.00,LWC V1.12 B30,2013-03-31 04:08:00,
2013-03-30 21:13:00,49.3,34.2,30.12,SSE,157,0.7,3.6,56,0.00,,,0.00,LWC V1.12 B30,2013-03-31 04:13:00,
2013-03-30 21:18:00,48.9,34.3,30.11,SE,135,4.5,4.7,57,0.00,,,0.00,LWC V1.12 B30,2013-03-31 04:18:00,
2013-03-30 21:23:00,48.7,34.1,30.11,SE,135,4.0,4.5,57,0.00,,,0.00,LWC V1.12 B30,2013-03-31 04:23:00,
2013-03-30 21:28:00,48.6,34.0,30.11,SE,135,3.8,4.5,57,0.00,,,0.00,LWC V1.12 B30,2013-03-31 04:28:00,
2013-03-30 21:33:00,48.2,34.1,30.11,SE,135,5.1,5.1,58,0.00,,,0.00,LWC V1.12 B30,2013-03-31 04:33:00,
2013-03-30 21:38:00,48.0,33.9,30.11,SE,135,4.7,5.4,58,0.00,,,0.00,LWC V1.12 B30,2013-03-31 04:38:00,
2013-03-30 21:43:00,48.0,33.9,30.11,SE,135,4.5,4.9,58,0.00,,,0.00,LWC V1.12 B30,2013-03-31 04:43:00,
2013-03-30 21:48:00,47.8,33.8,30.11,SE,135,3.6,3.8,58,0.00,,,0.00,LWC V1.12 B30,2013-03-31 04:48:00,
2013-03-30 21:53:00,47.7,33.6,30.11,SE,135,2.7,3.4,58,0.00,,,0.00,LWC V1.12 B30,2013-03-31 04:53:00,
2013-03-30 21:58:00,47.3,33.7,30.11,SE,135,3.4,4.0,59,0.00,,,0.00,LWC V1.12 B30,2013-03-31 04:58:00,
2013-03-30 22:03:00,47.1,34.0,30.11,SE,135,3.8,4.5,60,0.00,,,0.00,LWC V1.12 B30,2013-03-31 05:03:00,
2013-03-30 22:08:00,46.9,33.8,30.11,SE,135,4.0,4.7,60,0.00,,,0.00,LWC V1.12 B30,2013-03-31 05:08:00,
2013-03-30 22:13:00,46.8,33.6,30.11,SE,135,1.1,2.7,60,0.00,,,0.00,LWC V1.12 B30,2013-03-31 05:13:00,
2013-03-30 22:18:00,46.6,33.4,30.10,SSE,157,1.3,1.8,60,0.00,,,0.00,LWC V1.12 B30,2013-03-31 05:18:00,
2013-03-30 22:23:00,46.6,33.8,30.10,SE,135,3.6,3.6,61,0.00,,,0.00,LWC V1.12 B30,2013-03-31 05:23:00,
2013-03-30 22:28:00,46.6,33.8,30.10,SE,135,2.9,3.4,61,0.00,,,0.00,LWC V1.12 B30,2013-03-31 05:28:00,
2013-03-30 22:33:00,46.2,33.5,30.09,SE,135,3.6,4.0,61,0.00,,,0.00,LWC V1.12 B30,2013-03-31 05:33:00,
2013-03-30 22:38:00,46.0,33.3,30.10,SE,135,2.7,3.6,61,0.00,,,0.00,LWC V1.12 B30,2013-03-31 05:38:00,
2013-03-30 22:43:00,46.0,33.3,30.09,SE,135,3.1,3.6,61,0.00,,,0.00,LWC V1.12 B30,2013-03-31 05:43:00,
2013-03-30 22:48:00,45.7,33.4,30.09,SE,135,2.2,3.1,62,0.00,,,0.00,LWC V1.12 B30,2013-03-31 05:48:00,
2013-03-30 22:53:00,45.7,33.4,30.09,SSE,157,0.0,2.5,62,0.00,,,0.00,LWC V1.12 B30,2013-03-31 05:53:00,
2013-03-30 22:58:00,45.7,33.4,30.09,SSE,157,0.0,0.0,62,0.00,,,0.00,LWC V1.12 B30,2013-03-31 05:58:00,
2013-03-30 23:03:00,45.7,33.4,30.09,SE,135,2.9,2.9,62,0.00,,,0.00,LWC V1.12 B30,2013-03-31 06:03:00,
2013-03-30 23:08:00,45.5,33.2,30.09,SE,135,3.8,3.8,62,0.00,,,0.00,LWC V1.12 B30,2013-03-31 06:08:00,
2013-03-30 23:13:00,45.3,33.0,30.09,SSE,157,2.9,3.6,62,0.00,,,0.00,LWC V1.12 B30,2013-03-31 06:13:00,
2013-03-30 23:18:00,45.1,32.9,30.09,SE,135,0.0,0.0,62,0.00,,,0.00,LWC V1.12 B30,2013-03-31 06:18:00,
2013-03-30 23:24:00,45.1,33.3,30.09,SE,135,0.7,1.3,63,0.00,,,0.00,LWC V1.12 B30,2013-03-31 06:24:00,
2013-03-30 23:29:00,44.8,32.9,30.09,SE,135,0.0,2.2,63,0.00,,,0.00,LWC V1.12 B30,2013-03-31 06:29:00,
2013-03-30 23:34:00,44.6,32.8,30.09,SE,135,0.0,0.0,63,0.00,,,0.00,LWC V1.12 B30,2013-03-31 06:34:00,
2013-03-30 23:39:00,44.4,32.6,30.09,SSE,157,0.0,0.0,63,0.00,,,0.00,LWC V1.12 B30,2013-03-31 06:39:00,
2013-03-30 23:44:00,44.4,33.0,30.09,SE,135,0.0,0.0,64,0.00,,,0.00,LWC V1.12 B30,2013-03-31 06:44:00,
2013-03-30 23:49:00,44.2,32.8,30.09,SE,135,2.2,3.6,64,0.00,,,0.00,LWC V1.12 B30,2013-03-31 06:49:00,
2013-03-30 23:54:00,43.9,32.5,30.09,SE,135,0.0,0.0,64,0.00,,,0.00,LWC V1.12 B30,2013-03-31 06:54:00,
2013-03-30 23:59:00,43.7,32.3,30.09,SSE,157,1.3,1.3,64,0.00,,,0.00,LWC V1.12 B30,2013-03-31 06:59:00,